»·PEaware :: N7356T KBFL-KMHV

N7356T :: KBFL-KMHV

FLIGHT INFORMATION

Flight Status: Arrived
Operator: Privately registered:
United States
More flights under this callsign
Pilot: Mark A. (37014)
Aircraft: CESSNA 172 SKYHAWK
(C172)
More flights by this aircraft type
Origin: KBFL Meadows
United States
Destination: KMHV Mojave
United States
More flights between these airports :: More routes between these airports
Route: AMONT
File this flight plan on PilotEdge
Remarks:
Altitude:
(Current/Filed)
7,500ft
Speed:
(Current/Filed)
115kts
Departed: 25-Jan-22 04:28 PM
Arrived: 25-Jan-22 05:08 PM
Distance/Time
Traveled:
50nm/0:40
Distance/Time
To Go:
Arrived

Flight Plot

Page will automatically refresh every two minutes.

Flight plan parsing failed; only flown route is shown


Map Options




Map Legend


Flown Route
Filed Route
Departure Airport
Arrival Airport
Navaid (VOR, NDB)
Fix

Horizontal Profiles

Position Reports

Time Latitude Longitude Heading Altitude Ground
Speed
25-Jan-22 16:14 35.437605 -119.055134 132 501ft 0kts
25-Jan-22 16:15 35.437605 -119.055134 132 501ft 0kts
25-Jan-22 16:16 35.437605 -119.055134 132 501ft 0kts
25-Jan-22 16:17 35.437605 -119.055134 132 501ft 0kts
25-Jan-22 16:19 35.437588 -119.055129 191 501ft 0kts
25-Jan-22 16:20 35.434906 -119.055208 139 492ft 13kts
25-Jan-22 16:21 35.432558 -119.052358 138 493ft 10kts
25-Jan-22 16:22 35.430001 -119.049288 136 491ft 17kts
25-Jan-22 16:23 35.426315 -119.044868 145 482ft 9kts
25-Jan-22 16:24 35.425830 -119.045034 233 479ft 0kts
25-Jan-22 16:25 35.425830 -119.045034 233 479ft 0kts
25-Jan-22 16:26 35.425830 -119.045034 233 479ft 0kts
25-Jan-22 16:27 35.425830 -119.045034 233 479ft 0kts
25-Jan-22 16:28 35.427028 -119.047935 315 479ft 62kts
25-Jan-22 16:29 35.440599 -119.065705 320 1434ft 72kts
25-Jan-22 16:30 35.444339 -119.050040 118 2394ft 79kts
25-Jan-22 16:31 35.428801 -119.031415 163 3315ft 81kts
25-Jan-22 16:32 35.407114 -119.021895 148 4159ft 84kts
25-Jan-22 16:33 35.389229 -119.003375 133 4952ft 85kts
25-Jan-22 16:34 35.372101 -118.982644 132 5763ft 87kts
25-Jan-22 16:35 35.354486 -118.961087 131 6554ft 91kts
25-Jan-22 16:36 35.336252 -118.938971 130 7307ft 93kts
25-Jan-22 16:37 35.314938 -118.913186 132 7473ft 129kts
25-Jan-22 16:38 35.289570 -118.882936 131 7412ft 123kts
25-Jan-22 16:39 35.265214 -118.853487 131 7418ft 124kts
25-Jan-22 16:40 35.240208 -118.823299 130 7426ft 128kts
25-Jan-22 16:40 35.218883 -118.797594 130 7434ft 129kts
25-Jan-22 16:42 35.189140 -118.761794 130 7445ft 128kts
25-Jan-22 16:43 35.177166 -118.723657 96 7454ft 120kts
25-Jan-22 16:44 35.169249 -118.684075 96 7464ft 120kts
25-Jan-22 16:45 35.161160 -118.644414 96 7474ft 120kts
25-Jan-22 16:45 35.154436 -118.611579 96 7483ft 120kts
25-Jan-22 16:46 35.146316 -118.572003 96 7494ft 120kts
25-Jan-22 16:47 35.138237 -118.532588 96 7506ft 119kts
25-Jan-22 16:49 35.128760 -118.486537 96 7520ft 119kts
25-Jan-22 16:49 35.121983 -118.453715 97 7529ft 116kts
25-Jan-22 16:50 35.114192 -118.416228 97 7067ft 114kts
25-Jan-22 16:51 35.106442 -118.378927 97 6575ft 108kts
25-Jan-22 16:52 35.098458 -118.340069 100 5938ft 126kts
25-Jan-22 16:53 35.089845 -118.298973 100 5225ft 121kts
25-Jan-22 16:54 35.082085 -118.261572 101 4793ft 111kts
25-Jan-22 16:55 35.074671 -118.226075 98 4259ft 104kts
25-Jan-22 16:56 35.065754 -118.194186 114 3786ft 95kts
25-Jan-22 16:57 35.051745 -118.190822 299 3692ft 94kts
25-Jan-22 16:58 35.073170 -118.191921 31 3878ft 85kts
25-Jan-22 16:59 35.077648 -118.170630 133 3367ft 83kts
25-Jan-22 17:00 35.064400 -118.154622 125 2865ft 53kts
25-Jan-22 17:01 35.049373 -118.136661 131 3367ft 87kts
25-Jan-22 17:02 35.030854 -118.140018 259 3954ft 106kts
25-Jan-22 17:03 35.043891 -118.167104 307 3962ft 92kts
25-Jan-22 17:04 35.055943 -118.193673 321 3946ft 86kts
25-Jan-22 17:05 35.074323 -118.186129 52 3472ft 74kts
25-Jan-22 17:06 35.073670 -118.166214 125 2975ft 72kts
25-Jan-22 17:07 35.063519 -118.153551 152 2767ft 30kts
25-Jan-22 17:08 35.061503 -118.153563 135 2763ft 5kts
25-Jan-22 17:09 35.058742 -118.150209 135 2749ft 13kts
25-Jan-22 17:10 35.057602 -118.151552 267 2750ft 11kts
25-Jan-22 17:11 35.056847 -118.153214 314 2753ft 0kts

Navigation Log

Ident Type
Flight plan parsing failed, navigation log unavailable